Time;durP1;ratioP1;P1;durP2;ratioP2;P2;SDS_P1;SDS_P2;PMS_P1;PMS_P2;Temp;Humidity;BMP_temperature;BMP_pressure;BME280_temperature;BME280_humidity;BME280_pressure;Samples;Min_cycle;Max_cycle;Signal;HPM_P1;HPM_P2
2022/03/03 00:07:31;;;;;;;1999.90;999.90;;;;;;;1.13;58.72;101752.44;15397723;28;20046;-62
2022/03/03 00:15:05;;;;;;;1999.90;999.90;;;;;;;0.56;61.10;101765.25;15384419;28;20047;-60
2022/03/03 00:22:38;;;;;;;1999.90;999.90;;;;;;;0.84;60.22;101739.75;15401930;28;20047;-58
2022/03/03 00:30:10;;;;;;;;;;;;;;;1.22;59.30;101733.63;15415413;28;20489;-61
2022/03/03 00:37:44;;;;;;;1999.90;999.90;;;;;;;1.13;58.82;101738.69;15392117;28;20024;-62
2022/03/03 00:45:16;;;;;;;1999.90;999.90;;;;;;;1.08;58.91;101727.59;15435484;23;20501;-62
2022/03/03 00:52:50;;;;;;;1999.90;999.90;;;;;;;1.21;58.02;101725.63;15482120;28;20042;-62
2022/03/03 01:00:22;;;;;;;1999.90;999.90;;;;;;;1.10;58.53;101719.94;15483967;28;20054;-61
2022/03/03 01:07:55;;;;;;;1999.90;999.90;;;;;;;0.81;60.09;101727.31;15482048;28;20151;-61
2022/03/03 01:15:27;;;;;;;;;;;;;;;0.87;59.93;101728.28;15482044;28;20054;-60
2022/03/03 01:23:01;;;;;;;1999.90;999.90;;;;;;;0.70;60.09;101719.13;15482414;28;19922;-60
2022/03/03 01:30:33;;;;;;;;;;;;;;;0.64;60.68;101718.19;15482942;28;20054;-62
2022/03/03 01:38:08;;;;;;;1999.90;999.90;;;;;;;0.58;61.04;101717.25;15481778;28;20347;-61
2022/03/03 01:45:40;;;;;;;1999.90;999.90;;;;;;;0.50;60.19;101700.28;15463514;28;20089;-60
2022/03/03 01:53:13;;;;;;;1999.90;999.90;;;;;;;0.41;60.67;101699.00;15478446;28;20042;-61
2022/03/03 02:00:45;;;;;;;;;;;;;;;0.43;60.94;101697.69;15495053;28;20373;-60
2022/03/03 02:08:19;;;;;;;1999.90;999.90;;;;;;;0.24;60.98;101696.16;15478084;28;19921;-62
2022/03/03 02:15:51;;;;;;;;;;;;;;;0.42;61.42;101695.19;15481056;28;20054;-62
2022/03/03 02:23:25;;;;;;;1999.90;999.90;;;;;;;0.13;62.59;101680.56;15467175;28;19925;-62
2022/03/03 02:30:56;;;;;;;;;;;;;;;0.52;61.35;101671.53;15479096;28;20062;-61
2022/03/03 02:38:30;;;;;;;1999.90;999.90;;;;;;;0.48;62.62;101670.31;15478396;28;20044;-62
2022/03/03 02:46:02;;;;;;;;;;;;;;;0.81;62.14;101674.28;15477227;28;20407;-62
2022/03/03 02:53:36;;;;;;;1999.90;999.90;;;;;;;0.90;62.80;101661.81;15477377;28;19964;-60
2022/03/03 03:01:09;;;;;;;1999.90;999.90;;;;;;;1.02;62.43;101643.34;15476003;28;20445;-58
2022/03/03 03:08:43;;;;;;;1999.90;999.90;;;;;;;1.18;62.42;101646.41;15477433;28;20050;-60
2022/03/03 03:16:15;;;;;;;1999.90;999.90;;;;;;;1.39;61.98;101630.00;15483839;28;20074;-61
2022/03/03 03:23:49;;;;;;;1999.90;999.90;;;;;;;1.34;61.26;101615.31;15488554;28;20107;-60
2022/03/03 03:31:21;;;;;;;;;;;;;;;1.21;61.41;101599.16;15486869;28;20054;-61
2022/03/03 03:38:55;;;;;;;1999.90;999.90;;;;;;;0.84;62.74;101596.88;15486750;28;20273;-60
2022/03/03 03:46:27;;;;;;;1999.90;999.90;;;;;;;0.70;62.67;101601.81;15487245;28;20509;-58
2022/03/03 03:54:01;;;;;;;1999.90;999.90;;;;;;;0.18;64.85;101598.31;15470579;28;20057;-59
2022/03/03 04:01:33;;;;;;;1999.90;999.90;;;;;;;0.52;63.51;101582.78;15486139;28;20088;-59
2022/03/03 04:09:07;;;;;;;;;;;;;;;0.55;63.20;101579.56;15470501;28;20045;-62
2022/03/03 04:16:40;;;;;;;1999.90;999.90;;;;;;;0.31;64.19;101570.56;15485686;28;20049;-62
2022/03/03 04:24:15;;;;;;;1999.90;999.90;;;;;;;0.09;64.70;101566.81;15484454;28;20077;-61
2022/03/03 04:31:48;;;;;;;1999.90;999.90;;;;;;;0.04;65.15;101551.09;15484484;28;20042;-61
2022/03/03 04:39:21;;;;;;;1999.90;999.90;;;;;;;0.13;65.35;101557.88;15468225;28;20542;-61
2022/03/03 04:46:53;;;;;;;1999.90;999.90;;;;;;;0.06;65.24;101562.66;15482782;28;20130;-62
2022/03/03 04:54:27;;;;;;;1999.90;999.90;;;;;;;0.12;64.78;101574.59;15483402;28;20108;-62
2022/03/03 05:02:00;;;;;;;1999.90;999.90;;;;;;;-0.33;65.89;101581.56;15482694;28;20038;-62
2022/03/03 05:09:33;;;;;;;1999.90;999.90;;;;;;;-0.40;66.24;101586.34;15483348;28;20054;-62
2022/03/03 05:17:06;;;;;;;1999.90;999.90;;;;;;;-0.32;67.07;101576.91;15481683;28;20062;-61
2022/03/03 05:24:40;;;;;;;1999.90;999.90;;;;;;;-0.34;67.09;101579.88;15471716;28;20069;-62
2022/03/03 05:32:13;;;;;;;1999.90;999.90;;;;;;;-0.34;67.38;101581.81;15479610;28;20046;-62
2022/03/03 05:39:48;;;;;;;;;;;;;;;-0.13;67.41;101567.47;15480333;28;20046;-62
2022/03/03 05:47:20;;;;;;;1999.90;999.90;;;;;;;-0.20;66.90;101555.81;15479413;28;20405;-63
2022/03/03 05:54:54;;;;;;;1999.90;999.90;;;;;;;-0.41;66.22;101564.66;15464032;28;20049;-62
2022/03/03 06:02:27;;;;;;;1999.90;999.90;;;;;;;-0.26;65.86;101553.19;15478898;28;20134;-62
2022/03/03 06:10:03;;;;;;;1999.90;999.90;;;;;;;-0.26;66.12;101539.47;15480235;28;20043;-62
2022/03/03 06:17:37;;;;;;;1999.90;999.90;;;;;;;-0.37;66.96;101539.25;15478928;28;20061;-62
2022/03/03 06:25:11;;;;;;;1999.90;999.90;;;;;;;-0.22;66.52;101551.63;15477881;28;20050;-62
2022/03/03 06:32:44;;;;;;;1999.90;999.90;;;;;;;-0.13;67.38;101556.47;15477602;28;20053;-61
2022/03/03 06:40:17;;;;;;;1999.90;999.90;;;;;;;-0.13;66.72;101589.41;15479489;28;20104;-62
2022/03/03 06:47:49;;;;;;;1999.90;999.90;;;;;;;0.28;66.82;101590.28;15510898;23;20060;-61
2022/03/03 06:55:25;;;;;;;1999.90;999.90;;;;;;;0.58;67.18;101596.38;15474347;28;20050;-62
2022/03/03 07:02:57;;;;;;;1999.90;999.90;;;;;;;1.04;66.74;101590.88;15485371;28;20466;-64
2022/03/03 07:10:32;;;;;;;1999.90;999.90;;;;;;;1.67;65.61;101607.06;15480296;28;20042;-61
2022/03/03 07:18:12;;;;;;;1999.90;999.90;;;;;;;3.67;61.82;101610.94;15492489;28;20046;-61
2022/03/03 07:25:51;;;;;;;1999.90;999.90;;;;;;;4.10;59.60;101609.00;15489490;28;20039;-61
2022/03/03 07:33:33;;;;;;;1999.90;999.90;;;;;;;5.09;56.42;101616.22;15486472;28;20070;-62
2022/03/03 07:41:08;;;;;;;1999.90;999.90;;;;;;;5.95;54.24;101623.72;15471074;28;20039;-61
2022/03/03 07:48:43;;;;;;;1999.90;999.90;;;;;;;6.50;53.56;101616.34;15479362;28;20491;-62
2022/03/03 07:56:24;;;;;;;1999.90;999.90;;;;;;;6.95;52.54;101629.13;15484154;28;20116;-59
2022/03/03 08:03:58;;;;;;;1999.90;999.90;;;;;;;6.99;52.62;101627.47;15491975;28;20047;-59
2022/03/03 08:11:31;;;;;;;;;;;;;;;7.56;50.74;101633.44;15496840;28;20052;-60
2022/03/03 08:19:04;;;;;;;1999.90;999.90;;;;;;;8.45;48.02;101645.91;15495514;28;19925;-60
2022/03/03 08:26:39;;;;;;;1999.90;999.90;;;;;;;9.18;47.41;101641.88;15493803;28;20042;-61
2022/03/03 08:34:17;;;;;;;1999.90;999.90;;;;;;;9.50;47.32;101647.50;15494802;28;20495;-61
2022/03/03 08:41:56;;;;;;;1999.90;999.90;;;;;;;9.57;47.01;101654.63;15492276;28;20038;-61
2022/03/03 08:49:31;;;;;;;1999.90;999.90;;;;;;;9.48;46.45;101660.91;15492686;28;20038;-62
2022/03/03 08:57:05;;;;;;;1999.90;999.90;;;;;;;9.94;46.13;101660.13;15489968;28;20538;-62
2022/03/03 09:04:37;;;;;;;1999.90;999.90;;;;;;;8.46;49.01;101660.66;15489129;28;20051;-62
2022/03/03 09:12:13;;;;;;;1999.90;999.90;;;;;;;7.77;51.17;101679.38;15489443;28;20435;-61
2022/03/03 09:19:47;;;;;;;1999.90;999.90;;;;;;;7.76;50.24;101664.63;15491544;28;20053;-64
2022/03/03 09:27:20;;;;;;;;;;;;;;;5.58;56.15;101685.75;15490082;28;20050;-62
2022/03/03 09:34:52;;;;;;;1999.90;999.90;;;;;;;4.74;59.18;101691.63;15488172;28;19949;-63
2022/03/03 09:42:31;;;;;;;1999.90;999.90;;;;;;;4.78;58.44;101684.44;15482495;28;20074;-61
2022/03/03 09:50:05;;;;;;;1999.90;999.90;;;;;;;3.26;63.60;101689.78;15477902;28;20389;-62
2022/03/03 09:57:39;;;;;;;1999.90;999.90;;;;;;;4.38;61.14;101699.78;15488297;28;20438;-61
2022/03/03 10:05:11;;;;;;;1999.90;999.90;;;;;;;4.25;61.49;101701.06;15488104;28;20058;-63
2022/03/03 10:12:50;;;;;;;1999.90;999.90;;;;;;;3.76;62.16;101701.28;15485337;28;20080;-63
2022/03/03 10:20:22;;;;;;;1999.90;999.90;;;;;;;4.10;61.65;101703.75;15478481;28;20050;-61
2022/03/03 10:27:56;;;;;;;1999.90;999.90;;;;;;;3.48;63.07;101716.22;15438262;28;20052;-61
2022/03/03 10:35:28;;;;;;;;;;;;;;;3.35;63.93;101705.59;15478558;28;20057;-61
2022/03/03 10:43:01;;;;;;;1999.90;999.90;;;;;;;3.60;64.06;101713.28;15476604;28;20356;-61
2022/03/03 10:50:46;;;;;;;1999.90;999.90;;;;;;;4.09;63.20;101713.13;15471696;28;20043;-60
2022/03/03 10:58:19;;;;;;;1999.90;999.90;;;;;;;4.24;60.73;101709.63;15461824;28;20467;-61
2022/03/03 11:05:54;;;;;;;1999.90;999.90;;;;;;;4.34;61.49;101715.22;15462585;28;20561;-62
2022/03/03 11:13:30;;;;;;;1999.90;999.90;;;;;;;4.32;62.76;101711.88;15484246;28;20149;-63
2022/03/03 11:21:02;;;;;;;;;;;;;;;3.98;63.68;101716.91;15486904;28;20043;-63
2022/03/03 11:28:39;;;;;;;1999.90;999.90;;;;;;;3.88;64.59;101691.97;15484936;28;19977;-61
2022/03/03 11:36:19;;;;;;;1999.90;999.90;;;;;;;3.79;65.14;101694.38;15489928;28;20567;-62
2022/03/03 11:44:00;;;;;;;1999.90;999.90;;;;;;;4.26;64.84;101693.59;15481589;28;20132;-62
2022/03/03 11:51:34;;;;;;;1999.90;999.90;;;;;;;4.00;66.00;101689.84;15493333;28;20099;-61
2022/03/03 11:59:13;;;;;;;1999.90;999.90;;;;;;;4.26;66.09;101696.38;15485832;28;20078;-61
2022/03/03 12:06:47;;;;;;;1999.90;999.90;;;;;;;4.28;65.69;101691.44;15488376;28;20058;-61
2022/03/03 12:14:32;;;;;;;1999.90;999.90;;;;;;;4.45;64.18;101694.00;15494114;28;20163;-62
2022/03/03 12:22:04;;;;;;;1999.90;999.90;;;;;;;4.28;65.29;101688.66;15493469;28;20046;-61
2022/03/03 12:29:50;;;;;;;1999.90;999.90;;;;;;;4.53;64.98;101683.25;15492375;28;20046;-63
2022/03/03 12:37:22;;;;;;;1999.90;999.90;;;;;;;4.90;64.03;101680.38;15481899;28;20050;-61
2022/03/03 12:44:58;;;;;;;1999.90;999.90;;;;;;;5.73;60.91;101673.81;15491371;28;20447;-62
2022/03/03 12:52:30;;;;;;;1999.90;999.90;;;;;;;5.03;62.83;101678.19;15490224;28;20054;-60
2022/03/03 13:00:07;;;;;;;1999.90;999.90;;;;;;;5.02;63.61;101671.84;15490274;28;20376;-62
2022/03/03 13:07:40;;;;;;;1999.90;999.90;;;;;;;5.07;63.20;101663.53;15489210;28;20140;-62
2022/03/03 13:15:13;;;;;;;1999.90;999.90;;;;;;;5.10;62.91;101668.50;15490547;28;20145;-61
2022/03/03 13:22:46;;;;;;;1999.90;999.90;;;;;;;5.29;63.37;101660.53;15480760;28;20085;-59
2022/03/03 13:30:20;;;;;;;1999.90;999.90;;;;;;;4.93;63.49;101659.63;15501895;28;20061;-60
2022/03/03 13:37:52;;;;;;;1999.90;999.90;;;;;;;5.43;62.34;101661.66;15497742;28;20354;-62
2022/03/03 13:45:28;;;;;;;1999.90;999.90;;;;;;;4.82;63.59;101671.78;15489653;28;20447;-61
2022/03/03 13:53:18;;;;;;;1999.90;999.90;;;;;;;5.04;63.84;101675.16;15487958;28;20129;-62
2022/03/03 14:00:54;;;;;;;1999.90;999.90;;;;;;;4.91;63.62;101664.63;15488441;28;20051;-62
2022/03/03 14:08:29;;;;;;;1999.90;999.90;;;;;;;5.37;61.77;101667.47;15487762;28;20066;-61
2022/03/03 14:16:02;;;;;;;1999.90;999.90;;;;;;;5.43;61.15;101660.84;15489061;28;20058;-61
2022/03/03 14:23:35;;;;;;;1999.90;999.90;;;;;;;5.18;62.30;101667.97;15488135;28;20042;-60
2022/03/03 14:31:08;;;;;;;1999.90;999.90;;;;;;;4.81;63.78;101668.19;15487360;28;20465;-62
2022/03/03 14:38:41;;;;;;;;;;;;;;;4.60;64.22;101666.44;15485264;28;20053;-62
2022/03/03 14:46:14;;;;;;;1999.90;999.90;;;;;;;4.34;63.99;101663.53;15486277;28;19992;-62
2022/03/03 14:53:48;;;;;;;1999.90;999.90;;;;;;;4.47;65.08;101664.13;15487353;28;20424;-61
2022/03/03 15:01:22;;;;;;;1999.90;999.90;;;;;;;4.78;64.11;101657.63;15485804;28;20053;-63
2022/03/03 15:08:55;;;;;;;;;;;;;;;5.17;63.64;101643.34;15484719;28;20082;-63
2022/03/03 15:16:29;;;;;;;1999.90;999.90;;;;;;;4.97;64.60;101646.91;15512988;28;19949;-62
2022/03/03 15:24:01;;;;;;;;;;;;;;;5.19;63.61;101654.97;15496167;28;20046;-59
2022/03/03 15:31:35;;;;;;;1999.90;999.90;;;;;;;4.99;63.98;101647.47;15495018;28;19925;-63
2022/03/03 15:39:07;;;;;;;;;;;;;;;4.85;64.20;101643.56;15493775;28;20066;-60
2022/03/03 15:46:42;;;;;;;1999.90;999.90;;;;;;;4.93;63.99;101645.81;15483296;28;19929;-61
2022/03/03 15:54:15;;;;;;;1999.90;999.90;;;;;;;4.62;65.06;101647.63;15474795;28;20046;-62
2022/03/03 16:01:49;;;;;;;1999.90;999.90;;;;;;;4.93;63.88;101651.34;15494046;28;20049;-62
2022/03/03 16:09:21;;;;;;;;;;;;;;;4.80;64.30;101657.38;15468066;28;20427;-62
2022/03/03 16:16:55;;;;;;;1999.90;999.90;;;;;;;4.90;64.49;101657.41;15453605;28;19968;-62
2022/03/03 16:24:27;;;;;;;1999.90;999.90;;;;;;;4.75;64.89;101658.19;15493397;28;20049;-62
2022/03/03 16:32:06;;;;;;;1999.90;999.90;;;;;;;4.90;64.65;101668.47;15492375;28;20125;-62
2022/03/03 16:39:38;;;;;;;1999.90;999.90;;;;;;;4.69;66.00;101666.72;15492575;28;20058;-62
2022/03/03 16:47:13;;;;;;;1999.90;999.90;;;;;;;5.04;64.51;101685.38;15491482;28;20108;-61
2022/03/03 16:54:48;;;;;;;1999.90;999.90;;;;;;;4.37;66.57;101675.16;15491416;28;20085;-61
2022/03/03 17:02:22;;;;;;;1999.90;999.90;;;;;;;4.71;65.51;101689.44;15496917;28;20439;-60
2022/03/03 17:09:54;;;;;;;1999.90;999.90;;;;;;;4.93;64.47;101698.34;15489276;28;20389;-60
2022/03/03 17:17:28;;;;;;;1999.90;999.90;;;;;;;5.24;64.04;101704.81;15487676;28;20606;-62
2022/03/03 17:25:00;;;;;;;1999.90;999.90;;;;;;;5.14;63.14;101700.06;15489598;28;20061;-62
2022/03/03 17:32:33;;;;;;;1999.90;999.90;;;;;;;5.16;64.01;101705.34;15482724;28;20077;-61
2022/03/03 17:40:06;;;;;;;1999.90;999.90;;;;;;;5.27;63.40;101695.94;15488713;28;20077;-62
2022/03/03 17:47:39;;;;;;;1999.90;999.90;;;;;;;5.56;62.21;101699.03;15473924;28;20034;-60
2022/03/03 17:55:12;;;;;;;1999.90;999.90;;;;;;;5.11;63.45;101705.34;15482037;28;20060;-61
2022/03/03 18:02:45;;;;;;;1999.90;999.90;;;;;;;5.16;63.71;101713.63;15488641;28;20133;-64
2022/03/03 18:10:18;;;;;;;1999.90;999.90;;;;;;;5.34;63.50;101712.31;15490502;28;20046;-64
2022/03/03 18:17:51;;;;;;;1999.90;999.90;;;;;;;5.42;63.14;101714.53;15490139;28;20279;-61
2022/03/03 18:25:23;;;;;;;;;;;;;;;5.27;63.81;101726.41;15487804;28;20431;-61
2022/03/03 18:32:57;;;;;;;1999.90;999.90;;;;;;;5.15;63.69;101726.66;15488066;28;19953;-62
2022/03/03 18:40:29;;;;;;;;;;;;;;;5.15;64.63;101726.66;15490712;28;20046;-61
2022/03/03 18:48:05;;;;;;;1999.90;999.90;;;;;;;4.96;64.99;101717.16;15493414;28;19948;-62
2022/03/03 18:55:37;;;;;;;1999.90;999.90;;;;;;;5.17;63.90;101721.66;15499345;28;20049;-62
2022/03/03 19:03:11;;;;;;;1999.90;999.90;;;;;;;4.81;64.51;101725.41;15471138;28;20051;-64
2022/03/03 19:10:43;;;;;;;1999.90;999.90;;;;;;;4.60;64.33;101719.78;15491046;28;20082;-61
2022/03/03 19:18:16;;;;;;;1999.90;999.90;;;;;;;4.47;64.56;101711.13;15493887;28;20039;-58
2022/03/03 19:25:49;;;;;;;1999.90;999.90;;;;;;;4.14;65.11;101720.59;15493517;28;20046;-61
2022/03/03 19:41:15;;;;;;;1999.90;999.90;;;;;;;3.76;65.14;101726.13;15489227;28;20313;-64
2022/03/03 19:48:49;;;;;;;1999.90;999.90;;;;;;;3.55;65.57;101738.09;15489467;28;20058;-65
2022/03/03 19:56:21;;;;;;;1999.90;999.90;;;;;;;3.27;66.41;101744.69;15488295;28;20038;-62
2022/03/03 20:03:54;;;;;;;1999.90;999.90;;;;;;;3.18;67.08;101740.72;15500495;28;20137;-63
2022/03/03 20:11:27;;;;;;;;;;;;;;;3.14;67.32;101756.97;15494504;28;20066;-62
2022/03/03 20:19:00;;;;;;;1999.90;999.90;;;;;;;2.97;67.75;101750.69;15459344;28;20310;-61
2022/03/03 20:26:32;;;;;;;;;;;;;;;3.05;67.26;101761.25;15491278;28;20046;-62
2022/03/03 20:34:05;;;;;;;1999.90;999.90;;;;;;;2.84;67.81;101765.69;15495234;28;19969;-64
2022/03/03 20:41:38;;;;;;;1999.90;999.90;;;;;;;2.69;68.35;101770.97;15494173;28;20412;-62
2022/03/03 20:49:12;;;;;;;1999.90;999.90;;;;;;;2.56;68.44;101783.22;15482927;28;20112;-59
2022/03/03 20:56:46;;;;;;;1999.90;999.90;;;;;;;2.47;69.40;101775.63;15493462;28;20066;-61
2022/03/03 21:04:20;;;;;;;1999.90;999.90;;;;;;;2.57;68.25;101776.63;15492637;28;20039;-62
2022/03/03 21:11:52;;;;;;;1999.90;999.90;;;;;;;2.50;69.26;101767.72;15490969;28;20104;-62
2022/03/03 21:19:26;;;;;;;1999.90;999.90;;;;;;;2.37;70.20;101765.28;15454324;28;20133;-60
2022/03/03 21:26:58;;;;;;;1999.90;999.90;;;;;;;2.35;70.25;101774.91;15490484;28;20104;-64
2022/03/03 21:34:31;;;;;;;1999.90;999.90;;;;;;;2.26;70.45;101783.59;15489952;28;20504;-63
2022/03/03 21:42:05;;;;;;;1999.90;999.90;;;;;;;2.23;70.23;101778.59;15488490;28;20062;-62
2022/03/03 21:49:38;;;;;;;1999.90;999.90;;;;;;;2.22;70.31;101774.16;15487873;28;20331;-62
2022/03/03 21:57:11;;;;;;;1999.90;999.90;;;;;;;2.18;70.44;101761.97;15485830;28;20565;-63
2022/03/03 22:04:44;;;;;;;1999.90;999.90;;;;;;;2.10;70.61;101767.94;15480787;28;20084;-62
2022/03/03 22:12:17;;;;;;;;;;;;;;;2.21;70.16;101775.25;15494650;28;20050;-63
2022/03/03 22:19:51;;;;;;;1999.90;999.90;;;;;;;2.07;70.23;101768.41;15477852;28;19921;-62
2022/03/03 22:27:23;;;;;;;1999.90;999.90;;;;;;;1.92;70.48;101771.75;15477976;28;20045;-62
2022/03/03 22:34:57;;;;;;;1999.90;999.90;;;;;;;2.10;70.40;101778.94;15480402;28;20508;-62
2022/03/03 22:42:29;;;;;;;1999.90;999.90;;;;;;;2.17;70.26;101776.81;15460755;28;20050;-62
2022/03/03 22:57:57;;;;;;;1999.90;999.90;;;;;;;2.74;70.88;101773.00;15447552;28;20074;-62
2022/03/03 23:05:31;;;;;;;1999.90;999.90;;;;;;;2.88;71.33;101783.38;15484227;28;20046;-62
2022/03/03 23:13:03;;;;;;;1999.90;999.90;;;;;;;2.89;72.11;101785.03;15486016;28;20050;-62
2022/03/03 23:20:38;;;;;;;1999.90;999.90;;;;;;;3.12;71.63;101775.66;15482631;28;20308;-63
2022/03/03 23:28:10;;;;;;;1999.90;999.90;;;;;;;3.16;72.09;101776.84;15482006;28;20038;-63
2022/03/03 23:35:44;;;;;;;1999.90;999.90;;;;;;;3.36;71.62;101776.25;15495274;28;20121;-62
2022/03/03 23:43:17;;;;;;;1999.90;999.90;;;;;;;3.57;71.32;101768.19;15493950;28;20046;-61
2022/03/03 23:50:50;;;;;;;1999.90;999.90;;;;;;;3.32;73.43;101766.78;15493575;28;20084;-62
2022/03/03 23:58:22;;;;;;;1999.90;999.90;;;;;;;2.84;75.49;101778.63;15508959;28;20070;-63
